createdAt,value
2022-08-14T00:00:08.256Z,7.10
2022-08-14T00:02:12.634Z,6.63
2022-08-14T00:04:32.131Z,6.47
2022-08-14T00:06:39.114Z,7.70
2022-08-14T00:08:46.986Z,7.40
2022-08-14T00:10:52.583Z,7.47
2022-08-14T00:12:58.962Z,7.80
2022-08-14T00:15:03.956Z,8.43
2022-08-14T00:17:09.827Z,7.87
2022-08-14T00:19:19.325Z,7.67
2022-08-14T00:21:28.187Z,6.90
2022-08-14T00:23:35.382Z,6.80
2022-08-14T00:25:42.046Z,7.80
2022-08-14T00:27:49.438Z,7.83
2022-08-14T00:30:01.392Z,7.30
2022-08-14T00:32:52.399Z,8.00
2022-08-14T00:34:36.830Z,7.10
2022-08-14T00:36:49.973Z,7.93
2022-08-14T00:38:53.882Z,7.73
2022-08-14T00:40:57.535Z,7.67
2022-08-14T00:43:01.906Z,7.40
2022-08-14T00:45:15.110Z,8.30
2022-08-14T00:47:21.491Z,7.10
2022-08-14T00:49:30.199Z,6.63
2022-08-14T00:51:37.913Z,7.87
2022-08-14T00:53:42.962Z,7.70
2022-08-14T00:55:48.118Z,7.63
2022-08-14T00:58:12.686Z,8.10
2022-08-14T01:00:37.266Z,6.13
2022-08-14T01:02:45.612Z,7.50
2022-08-14T01:04:59.849Z,6.63
2022-08-14T01:07:08.973Z,8.77
2022-08-14T01:09:15.671Z,7.40
2022-08-14T01:11:19.882Z,6.53
2022-08-14T01:13:27.317Z,7.67
2022-08-14T01:15:58.516Z,7.50
2022-08-14T01:18:27.342Z,6.83
2022-08-14T01:20:49.414Z,8.57
2022-08-14T01:22:57.010Z,7.03
2022-08-14T01:25:01.023Z,7.53
2022-08-14T01:27:09.329Z,8.20
2022-08-14T01:29:16.315Z,7.70
2022-08-14T01:31:43.826Z,6.83
2022-08-14T01:35:15.613Z,7.20
2022-08-14T01:36:21.204Z,7.43
2022-08-14T01:38:31.851Z,6.47
2022-08-14T01:40:41.798Z,7.10
2022-08-14T01:42:46.827Z,7.17
2022-08-14T01:44:55.881Z,7.60
2022-08-14T01:47:02.007Z,9.23
2022-08-14T01:49:12.493Z,7.33
2022-08-14T01:51:20.953Z,8.03
2022-08-14T01:53:25.440Z,8.03
2022-08-14T01:55:40.248Z,7.97
2022-08-14T01:58:00.790Z,8.40
2022-08-14T02:00:13.734Z,8.23
2022-08-14T02:02:22.176Z,8.40
2022-08-14T02:04:54.775Z,7.60
2022-08-14T02:06:54.186Z,8.73
2022-08-14T02:08:58.308Z,7.40
2022-08-14T02:11:22.529Z,9.30
2022-08-14T02:13:29.381Z,8.90
2022-08-14T02:15:35.112Z,8.50
2022-08-14T02:17:39.167Z,7.53
2022-08-14T02:19:45.460Z,8.00
2022-08-14T02:21:54.810Z,7.50
2022-08-14T02:24:01.908Z,10.37
2022-08-14T02:26:24.797Z,8.90
2022-08-14T02:28:57.268Z,8.03
2022-08-14T02:31:00.378Z,8.20
2022-08-14T02:33:06.026Z,7.47
2022-08-14T02:35:18.052Z,8.63
2022-08-14T02:37:21.511Z,6.83
2022-08-14T02:39:25.559Z,8.00
2022-08-14T02:41:38.946Z,7.77
2022-08-14T02:43:46.561Z,8.10
2022-08-14T02:45:52.192Z,8.17
2022-08-14T02:47:57.875Z,8.80
2022-08-14T02:50:05.999Z,8.40
2022-08-14T02:52:56.385Z,8.50
2022-08-14T02:54:35.245Z,8.60
2022-08-14T02:57:16.132Z,8.50
2022-08-14T02:59:06.449Z,7.60
2022-08-14T03:01:11.360Z,8.70
2022-08-14T03:03:17.027Z,8.10
2022-08-14T03:05:21.154Z,8.90
2022-08-14T03:07:25.931Z,9.80
2022-08-14T03:09:42.430Z,9.20
2022-08-14T03:11:56.012Z,8.00
2022-08-14T03:14:00.042Z,9.00
2022-08-14T03:16:05.741Z,9.43
2022-08-14T03:18:18.529Z,7.47
2022-08-14T03:20:22.805Z,9.47
2022-08-14T03:22:29.918Z,8.77
2022-08-14T03:24:34.941Z,7.50
2022-08-14T03:26:40.859Z,8.63
2022-08-14T03:28:49.241Z,9.57
2022-08-14T03:30:54.854Z,9.13
2022-08-14T03:32:59.099Z,8.43
2022-08-14T03:35:06.748Z,8.47
2022-08-14T03:37:51.281Z,10.43
2022-08-14T03:39:38.030Z,9.17
2022-08-14T03:41:46.241Z,9.03
2022-08-14T03:43:57.390Z,9.90
2022-08-14T03:46:10.005Z,8.07
2022-08-14T03:48:31.589Z,7.70
2022-08-14T03:50:44.755Z,8.30
2022-08-14T03:52:55.806Z,8.00
2022-08-14T03:55:01.621Z,8.20
2022-08-14T03:57:09.272Z,8.50
2022-08-14T03:59:18.494Z,8.07
2022-08-14T04:01:29.323Z,8.80
2022-08-14T04:03:42.889Z,8.33
2022-08-14T04:05:50.223Z,8.50
2022-08-14T04:08:08.251Z,8.13
2022-08-14T04:10:12.663Z,8.53
2022-08-14T04:12:26.449Z,9.00
2022-08-14T04:14:32.168Z,7.97
2022-08-14T04:16:47.503Z,9.37
2022-08-14T04:18:54.453Z,8.23
2022-08-14T04:20:58.728Z,9.30
2022-08-14T04:23:03.157Z,8.90
2022-08-14T04:25:10.682Z,9.50
2022-08-14T04:27:16.748Z,9.80
2022-08-14T04:29:21.218Z,8.90
2022-08-14T04:32:58.331Z,8.97
2022-08-14T04:33:57.511Z,8.20
2022-08-14T04:36:01.541Z,9.87
2022-08-14T04:38:37.062Z,8.60
2022-08-14T04:41:00.048Z,9.37
2022-08-14T04:43:21.059Z,9.07
2022-08-14T04:45:34.274Z,7.60
2022-08-14T04:47:56.843Z,8.23
2022-08-14T04:50:00.721Z,7.67
2022-08-14T04:52:15.518Z,8.03
2022-08-14T04:54:24.488Z,8.43
2022-08-14T04:56:34.568Z,8.13
2022-08-14T04:58:39.120Z,8.80
2022-08-14T05:00:43.159Z,8.20
2022-08-14T05:02:53.797Z,8.90
2022-08-14T05:05:01.290Z,7.57
2022-08-14T05:07:05.891Z,8.40
2022-08-14T05:09:13.925Z,8.20
2022-08-14T05:11:19.391Z,6.70
2022-08-14T05:13:29.954Z,7.37
2022-08-14T05:15:37.190Z,7.40
2022-08-14T05:17:54.031Z,6.47
2022-08-14T05:21:55.430Z,6.77
2022-08-14T05:22:38.264Z,7.00
2022-08-14T05:24:41.998Z,6.40
2022-08-14T05:26:48.068Z,6.23
2022-08-14T05:28:51.987Z,6.90
2022-08-14T05:30:57.559Z,6.30
2022-08-14T05:33:01.479Z,6.43
2022-08-14T05:35:05.860Z,6.80
2022-08-14T05:37:15.455Z,6.93
2022-08-14T05:39:19.497Z,5.47
2022-08-14T05:41:23.320Z,5.90
2022-08-14T05:43:42.851Z,6.00
2022-08-14T05:45:48.606Z,5.30
2022-08-14T05:47:54.810Z,5.93
2022-08-14T05:49:59.430Z,5.30
2022-08-14T05:52:03.312Z,6.00
2022-08-14T05:54:27.172Z,5.47
2022-08-14T05:56:31.457Z,6.40
2022-08-14T05:58:41.310Z,5.90
2022-08-14T06:00:46.444Z,6.10
2022-08-14T06:02:51.370Z,5.63
2022-08-14T06:04:58.862Z,5.07
2022-08-14T06:07:03.016Z,5.43
2022-08-14T06:09:10.027Z,5.80
2022-08-14T06:11:20.235Z,5.87
2022-08-14T06:13:31.592Z,5.23
2022-08-14T06:15:35.929Z,5.37
2022-08-14T06:17:58.551Z,6.10
2022-08-14T06:20:04.800Z,4.83
2022-08-14T06:22:14.741Z,5.00
2022-08-14T06:24:22.120Z,4.90
2022-08-14T06:26:30.511Z,5.50
2022-08-14T06:28:34.753Z,4.97
2022-08-14T06:30:46.353Z,5.90
2022-08-14T06:32:52.333Z,5.50
2022-08-14T06:35:09.920Z,5.13
2022-08-14T06:37:20.028Z,4.60
2022-08-14T06:39:37.411Z,5.07
2022-08-14T06:41:57.664Z,4.50
2022-08-14T06:44:02.641Z,4.53
2022-08-14T06:46:12.937Z,5.30
2022-08-14T06:48:27.995Z,4.30
2022-08-14T06:50:33.691Z,4.63
2022-08-14T06:52:41.702Z,4.50
2022-08-14T06:54:54.324Z,5.00
2022-08-14T06:57:08.574Z,4.90
2022-08-14T06:59:16.011Z,4.40
2022-08-14T07:01:37.359Z,4.10
2022-08-14T07:03:58.492Z,4.40
2022-08-14T07:06:03.855Z,3.83
2022-08-14T07:08:18.922Z,4.43
2022-08-14T07:10:26.729Z,4.10
2022-08-14T07:13:01.015Z,4.20
2022-08-14T07:15:01.104Z,4.27
2022-08-14T07:17:07.373Z,4.63
2022-08-14T07:19:11.014Z,3.93
2022-08-14T07:21:16.196Z,4.00
2022-08-14T07:23:21.527Z,3.97
2022-08-14T07:25:32.271Z,4.80
2022-08-14T07:27:40.922Z,3.87
2022-08-14T07:29:46.300Z,3.97
2022-08-14T07:31:51.315Z,3.93
2022-08-14T07:33:57.169Z,3.83
2022-08-14T07:36:27.006Z,4.33
2022-08-14T07:38:37.690Z,4.00
2022-08-14T07:40:42.830Z,3.33
2022-08-14T07:42:51.271Z,3.90
2022-08-14T07:44:58.544Z,3.30
2022-08-14T07:47:02.499Z,3.60
2022-08-14T07:49:11.645Z,3.87
2022-08-14T07:51:21.975Z,3.43
2022-08-14T07:53:28.385Z,3.90
2022-08-14T07:55:35.037Z,3.80
2022-08-14T07:57:39.811Z,2.77
2022-08-14T07:59:49.400Z,3.20
2022-08-14T08:01:58.523Z,3.37
2022-08-14T08:04:16.410Z,3.13
2022-08-14T08:06:21.159Z,3.83
2022-08-14T08:08:31.475Z,3.33
2022-08-14T08:11:01.875Z,3.30
2022-08-14T08:13:03.817Z,2.77
2022-08-14T08:15:11.105Z,3.40
2022-08-14T08:17:18.934Z,3.40
2022-08-14T08:19:22.919Z,3.40
2022-08-14T08:21:27.156Z,3.40
2022-08-14T08:23:43.485Z,3.40
2022-08-14T08:25:55.053Z,3.70
2022-08-14T08:28:08.033Z,3.90
2022-08-14T08:30:18.432Z,3.00
2022-08-14T08:32:22.872Z,2.67
2022-08-14T08:34:50.532Z,2.50
2022-08-14T08:36:57.767Z,2.90
2022-08-14T08:39:16.919Z,2.80
2022-08-14T08:41:31.704Z,2.90
2022-08-14T08:43:38.461Z,3.27
2022-08-14T08:45:45.048Z,2.90
2022-08-14T08:47:50.822Z,3.10
2022-08-14T08:50:00.059Z,3.17
2022-08-14T08:52:05.157Z,2.40
2022-08-14T08:54:18.358Z,3.30
2022-08-14T08:56:30.575Z,2.30
2022-08-14T08:58:41.148Z,2.97
2022-08-14T09:00:54.262Z,3.00
2022-08-14T09:03:06.973Z,2.67
2022-08-14T09:05:13.921Z,3.30
2022-08-14T09:07:19.556Z,2.37
2022-08-14T09:09:33.044Z,3.03
2022-08-14T09:11:37.265Z,2.57
2022-08-14T09:13:40.979Z,2.70
2022-08-14T09:15:48.007Z,2.73
2022-08-14T09:17:57.118Z,3.27
2022-08-14T09:20:04.158Z,2.80
2022-08-14T09:22:35.765Z,3.30
2022-08-14T09:24:44.085Z,2.90
2022-08-14T09:26:50.181Z,2.60
2022-08-14T09:28:57.521Z,2.60
2022-08-14T09:31:01.815Z,2.77
2022-08-14T09:34:04.351Z,3.00
2022-08-14T09:36:26.425Z,3.10
2022-08-14T09:38:35.488Z,2.97
2022-08-14T09:40:49.117Z,2.93
2022-08-14T09:43:00.480Z,2.90
2022-08-14T09:45:12.478Z,2.63
2022-08-14T09:47:17.014Z,3.23
2022-08-14T09:49:32.689Z,3.23
2022-08-14T09:51:58.350Z,3.07
2022-08-14T09:54:19.586Z,2.60
2022-08-14T09:56:30.567Z,2.60
2022-08-14T09:58:41.891Z,3.40
2022-08-14T10:00:48.746Z,2.80
2022-08-14T10:02:58.438Z,2.70
2022-08-14T10:05:09.169Z,2.90
2022-08-14T10:07:13.357Z,3.00
2022-08-14T10:09:20.518Z,2.77
2022-08-14T10:11:34.798Z,3.27
2022-08-14T10:13:52.933Z,3.10
2022-08-14T10:16:01.811Z,2.70
2022-08-14T10:18:17.274Z,2.70
2022-08-14T10:20:40.269Z,2.90
2022-08-14T10:23:14.280Z,2.87
2022-08-14T10:25:18.105Z,2.90
2022-08-14T10:27:27.267Z,2.10
2022-08-14T10:29:34.017Z,2.87
2022-08-14T10:31:45.288Z,2.60
2022-08-14T10:34:06.436Z,2.70
2022-08-14T10:36:35.220Z,2.37
2022-08-14T10:38:50.473Z,2.80
2022-08-14T10:40:59.438Z,3.10
2022-08-14T10:43:09.030Z,2.50
2022-08-14T10:45:23.151Z,3.40
2022-08-14T10:48:09.560Z,2.80
2022-08-14T10:50:03.726Z,3.03
2022-08-14T10:52:11.530Z,3.63
2022-08-14T10:54:36.299Z,3.03
2022-08-14T10:56:52.132Z,2.80
2022-08-14T10:59:02.849Z,2.67
2022-08-14T11:01:10.830Z,2.40
2022-08-14T11:03:17.300Z,2.70
2022-08-14T11:05:43.369Z,3.30
2022-08-14T11:08:02.350Z,2.40
2022-08-14T11:10:14.408Z,2.60
2022-08-14T11:12:34.677Z,2.90
2022-08-14T11:14:44.134Z,2.50
2022-08-14T11:16:58.070Z,2.70
2022-08-14T11:19:09.091Z,3.40
2022-08-14T11:21:18.683Z,2.70
2022-08-14T11:23:28.463Z,3.03
2022-08-14T11:25:53.531Z,2.80
2022-08-14T11:27:58.609Z,2.77
2022-08-14T11:30:51.225Z,3.10
2022-08-14T11:32:31.358Z,2.53
2022-08-14T11:34:39.715Z,2.87
2022-08-14T11:37:09.322Z,3.03
2022-08-14T11:39:12.124Z,2.67
2022-08-14T11:41:21.146Z,3.23
2022-08-14T11:43:30.572Z,2.67
2022-08-14T11:45:38.806Z,2.40
2022-08-14T11:47:43.888Z,3.00
2022-08-14T11:50:33.786Z,2.90
2022-08-14T11:52:42.617Z,2.93
2022-08-14T11:54:58.835Z,3.33
2022-08-14T11:57:02.603Z,3.13
2022-08-14T11:59:19.127Z,4.23
2022-08-14T12:01:31.541Z,4.00
2022-08-14T12:03:51.252Z,3.97
2022-08-14T12:06:07.188Z,4.00
2022-08-14T12:08:39.113Z,3.83
2022-08-14T12:10:46.959Z,3.80
2022-08-14T12:12:56.818Z,3.73
2022-08-14T12:15:01.605Z,3.90
2022-08-14T12:17:09.522Z,3.80
2022-08-14T12:19:19.162Z,3.47
2022-08-14T12:21:29.460Z,3.90
2022-08-14T12:23:39.141Z,3.80
2022-08-14T12:25:59.544Z,3.67
2022-08-14T12:28:27.279Z,4.20
2022-08-14T12:30:42.380Z,3.13
2022-08-14T12:32:51.068Z,3.10
2022-08-14T12:34:55.959Z,4.07
2022-08-14T12:37:10.159Z,3.50
2022-08-14T12:39:21.423Z,3.70
2022-08-14T12:41:37.277Z,3.70
2022-08-14T12:43:53.793Z,4.20
2022-08-14T12:46:00.577Z,3.50
2022-08-14T12:48:21.653Z,4.00
2022-08-14T12:50:49.828Z,4.10
2022-08-14T12:53:13.943Z,4.60
2022-08-14T12:55:22.948Z,3.77
2022-08-14T12:57:43.427Z,4.10
2022-08-14T12:59:50.687Z,4.53
2022-08-14T13:02:03.154Z,3.60
2022-08-14T13:04:13.298Z,4.07
2022-08-14T13:06:29.095Z,3.87
2022-08-14T13:08:37.724Z,3.90
2022-08-14T13:10:53.373Z,4.20
2022-08-14T13:13:13.676Z,4.10
2022-08-14T13:15:20.023Z,4.00
2022-08-14T13:17:28.312Z,4.23
2022-08-14T13:19:32.824Z,4.50
2022-08-14T13:22:05.785Z,4.20
2022-08-14T13:24:04.785Z,4.20
2022-08-14T13:26:11.072Z,4.27
2022-08-14T13:28:33.879Z,5.23
2022-08-14T13:30:43.291Z,4.37
2022-08-14T13:32:47.973Z,4.70
2022-08-14T13:34:57.375Z,4.30
2022-08-14T13:37:07.308Z,4.50
2022-08-14T13:39:12.905Z,5.00
2022-08-14T13:41:24.946Z,3.90
2022-08-14T13:43:49.430Z,4.10
2022-08-14T13:46:04.055Z,4.80
2022-08-14T13:48:28.554Z,5.00
2022-08-14T13:50:39.673Z,5.33
2022-08-14T13:52:51.623Z,4.67
2022-08-14T13:55:03.577Z,4.20
2022-08-14T13:57:13.127Z,3.83
2022-08-14T13:59:37.213Z,4.23
2022-08-14T14:01:46.063Z,4.77
2022-08-14T14:03:59.803Z,4.07
2022-08-14T14:06:09.236Z,4.40
2022-08-14T14:08:19.086Z,4.40
2022-08-14T14:10:43.141Z,4.73
2022-08-14T14:12:56.244Z,3.87
2022-08-14T14:15:04.892Z,4.40
2022-08-14T14:17:12.914Z,4.60
2022-08-14T14:19:26.271Z,4.70
2022-08-14T14:21:34.745Z,4.33
2022-08-14T14:23:39.769Z,4.37
2022-08-14T14:25:51.292Z,4.83
2022-08-14T14:28:04.650Z,4.67
2022-08-14T14:30:46.127Z,4.60
2022-08-14T14:33:02.344Z,4.77
2022-08-14T14:35:12.241Z,4.27
2022-08-14T14:37:24.243Z,4.90
2022-08-14T14:39:29.228Z,5.03
2022-08-14T14:41:43.717Z,4.50
2022-08-14T14:43:52.137Z,22.00
2022-08-14T14:46:00.003Z,21.97
2022-08-14T14:48:09.752Z,6.20
2022-08-14T14:50:14.994Z,5.97
2022-08-14T14:52:27.488Z,6.70
2022-08-14T14:54:37.658Z,5.27
2022-08-14T14:56:51.212Z,5.50
2022-08-14T14:59:03.440Z,6.10
2022-08-14T15:01:11.512Z,5.07
2022-08-14T15:03:18.166Z,4.47
2022-08-14T15:05:24.548Z,5.87
2022-08-14T15:07:33.074Z,4.47
2022-08-14T15:09:39.202Z,4.87
2022-08-14T15:11:45.621Z,4.97
2022-08-14T15:13:57.543Z,5.50
2022-08-14T15:16:01.593Z,6.37
2022-08-14T15:18:14.819Z,5.40
2022-08-14T15:20:31.532Z,5.13
2022-08-14T15:22:39.673Z,5.10
2022-08-14T15:24:47.756Z,4.63
2022-08-14T15:26:51.707Z,5.50
2022-08-14T15:29:03.020Z,5.00
2022-08-14T15:31:09.994Z,4.60
2022-08-14T15:33:16.157Z,5.70
2022-08-14T15:35:25.548Z,5.00
2022-08-14T15:37:35.463Z,4.00
2022-08-14T15:39:49.369Z,5.10
2022-08-14T15:41:59.286Z,5.50
2022-08-14T15:44:04.879Z,5.57
2022-08-14T15:46:41.429Z,4.53
2022-08-14T15:48:51.422Z,5.40
2022-08-14T15:51:04.958Z,5.07
2022-08-14T15:53:12.371Z,4.10
2022-08-14T15:55:17.861Z,5.47
2022-08-14T15:57:22.762Z,4.93
2022-08-14T15:59:28.066Z,4.83
2022-08-14T16:01:52.769Z,4.50
2022-08-14T16:04:00.522Z,4.70
2022-08-14T16:06:10.916Z,5.63
2022-08-14T16:08:26.909Z,4.30
2022-08-14T16:10:33.529Z,5.50
2022-08-14T16:12:41.594Z,4.77
2022-08-14T16:14:50.821Z,5.20
2022-08-14T16:17:00.156Z,5.20
2022-08-14T16:19:09.727Z,5.13
2022-08-14T16:21:19.407Z,4.90
2022-08-14T16:23:23.548Z,4.67
2022-08-14T16:25:35.387Z,4.30
2022-08-14T16:27:41.545Z,5.27
2022-08-14T16:29:49.704Z,5.10
2022-08-14T16:31:58.243Z,5.07
2022-08-14T16:34:44.397Z,5.30
2022-08-14T16:36:30.551Z,4.83
2022-08-14T16:38:46.223Z,5.30
2022-08-14T16:41:14.950Z,4.47
2022-08-14T16:43:28.401Z,4.87
2022-08-14T16:45:33.722Z,5.40
2022-08-14T16:47:43.078Z,5.43
2022-08-14T16:50:04.563Z,5.00
2022-08-14T16:52:25.513Z,4.97
2022-08-14T16:54:44.680Z,5.63
2022-08-14T16:56:51.402Z,6.17
2022-08-14T16:59:18.004Z,5.37
2022-08-14T17:01:25.346Z,5.67
2022-08-14T17:03:40.726Z,5.90
2022-08-14T17:05:49.283Z,5.43
2022-08-14T17:08:31.914Z,5.50
2022-08-14T17:11:00.837Z,5.63
2022-08-14T17:13:47.588Z,5.73
2022-08-14T17:16:06.590Z,5.13
2022-08-14T17:18:14.854Z,5.07
2022-08-14T17:20:53.682Z,5.73
2022-08-14T17:22:57.357Z,5.80
2022-08-14T17:25:10.869Z,5.60
2022-08-14T17:27:18.355Z,5.80
2022-08-14T17:29:29.429Z,4.73
2022-08-14T17:31:58.369Z,5.63
2022-08-14T17:34:02.525Z,6.23
2022-08-14T17:36:21.292Z,5.73
2022-08-14T17:38:38.456Z,5.57
2022-08-14T17:40:44.768Z,5.23
2022-08-14T17:43:02.406Z,6.20
2022-08-14T17:45:10.046Z,5.27
2022-08-14T17:47:18.168Z,6.00
2022-08-14T17:49:26.197Z,6.67
2022-08-14T17:51:32.172Z,6.33
2022-08-14T17:53:53.492Z,6.97
2022-08-14T17:56:03.981Z,5.73
2022-08-14T17:58:20.603Z,6.50
2022-08-14T18:00:27.372Z,6.50
2022-08-14T18:02:32.194Z,6.27
2022-08-14T18:04:37.985Z,5.73
2022-08-14T18:07:06.934Z,6.60
2022-08-14T18:09:26.186Z,6.40
2022-08-14T18:11:45.798Z,6.27
2022-08-14T18:13:52.782Z,6.23
2022-08-14T18:16:02.610Z,6.83
2022-08-14T18:18:14.207Z,7.17
2022-08-14T18:21:42.863Z,7.27
2022-08-14T18:22:49.546Z,7.20
2022-08-14T18:24:53.967Z,7.33
2022-08-14T18:27:06.873Z,6.90
2022-08-14T18:29:20.483Z,6.83
2022-08-14T18:31:44.235Z,6.53
2022-08-14T18:33:55.148Z,7.33
2022-08-14T18:36:47.797Z,6.57
2022-08-14T18:38:46.378Z,7.10
2022-08-14T18:41:19.211Z,7.40
2022-08-14T18:43:45.403Z,7.10
2022-08-14T18:46:03.423Z,7.73
2022-08-14T18:48:50.403Z,7.57
2022-08-14T18:50:56.853Z,6.70
2022-08-14T18:53:11.480Z,7.40
2022-08-14T18:55:53.343Z,7.90
2022-08-14T18:58:28.047Z,8.43
2022-08-14T19:00:52.151Z,7.53
2022-08-14T19:02:58.156Z,7.20
2022-08-14T19:05:03.161Z,7.60
2022-08-14T19:07:19.447Z,7.30
2022-08-14T19:10:00.987Z,7.20
2022-08-14T19:12:15.395Z,8.20
2022-08-14T19:14:45.205Z,7.83
2022-08-14T19:16:53.696Z,7.30
2022-08-14T19:19:03.495Z,8.33
2022-08-14T19:21:13.310Z,6.77
2022-08-14T19:23:19.528Z,7.30
2022-08-14T19:25:54.757Z,7.30
2022-08-14T19:28:31.185Z,7.20
2022-08-14T19:30:37.088Z,8.43
2022-08-14T19:32:42.227Z,7.00
2022-08-14T19:34:52.855Z,7.73
2022-08-14T19:37:10.116Z,8.50
2022-08-14T19:39:19.233Z,7.93
2022-08-14T19:41:29.860Z,8.30
2022-08-14T19:43:50.764Z,8.07
2022-08-14T19:46:00.451Z,8.70
2022-08-14T19:48:15.622Z,8.60
2022-08-14T19:50:40.213Z,8.07
2022-08-14T19:52:45.963Z,8.83
2022-08-14T19:54:53.591Z,8.53
2022-08-14T19:57:04.485Z,8.43
2022-08-14T19:59:09.297Z,8.03
2022-08-14T20:01:14.124Z,8.90
2022-08-14T20:03:24.007Z,9.47
2022-08-14T20:05:28.707Z,13.30
2022-08-14T20:07:59.071Z,13.53
2022-08-14T20:11:04.790Z,11.30
2022-08-14T20:12:35.282Z,11.20
2022-08-14T20:14:40.963Z,10.40
2022-08-14T20:17:05.466Z,9.70
2022-08-14T20:19:24.860Z,10.67
2022-08-14T20:21:58.248Z,9.83
2022-08-14T20:24:30.428Z,9.40
2022-08-14T20:26:36.800Z,9.03
2022-08-14T20:28:51.434Z,9.70
2022-08-14T20:31:14.619Z,7.47
2022-08-14T20:33:23.382Z,8.00
2022-08-14T20:35:35.861Z,8.80
2022-08-14T20:37:42.767Z,9.73
2022-08-14T20:39:54.552Z,11.37
2022-08-14T20:42:23.455Z,10.20
2022-08-14T20:44:48.631Z,9.60
2022-08-14T20:47:03.943Z,9.87
2022-08-14T20:49:19.517Z,8.87
2022-08-14T20:51:36.561Z,9.13
2022-08-14T20:53:42.150Z,7.93
2022-08-14T20:55:45.781Z,9.00
2022-08-14T20:57:57.724Z,8.30
2022-08-14T21:00:03.017Z,8.50
2022-08-14T21:02:30.509Z,8.93
2022-08-14T21:04:47.387Z,9.00
2022-08-14T21:07:25.020Z,10.83
2022-08-14T21:09:16.993Z,8.77
2022-08-14T21:11:28.488Z,9.00
2022-08-14T21:14:19.893Z,8.10
2022-08-14T21:15:59.688Z,8.87
2022-08-14T21:18:08.029Z,9.27
2022-08-14T21:20:21.213Z,8.13
2022-08-14T21:22:30.748Z,7.87
2022-08-14T21:24:39.916Z,9.27
2022-08-14T21:27:00.370Z,8.97
2022-08-14T21:29:11.508Z,8.13
2022-08-14T21:31:15.798Z,9.70
2022-08-14T21:33:21.797Z,10.50
2022-08-14T21:35:25.996Z,9.17
2022-08-14T21:37:32.907Z,9.93
2022-08-14T21:39:39.261Z,9.20
2022-08-14T21:41:50.043Z,9.83
2022-08-14T21:44:20.380Z,9.40
2022-08-14T21:46:24.424Z,9.33
2022-08-14T21:48:33.960Z,9.23
2022-08-14T21:51:00.246Z,9.07
2022-08-14T21:53:05.962Z,8.70
2022-08-14T21:55:13.980Z,10.60
2022-08-14T21:58:04.107Z,9.20
2022-08-14T21:59:45.725Z,9.70
2022-08-14T22:02:00.927Z,10.53
2022-08-14T22:04:33.315Z,8.93
2022-08-14T22:06:34.246Z,9.77
2022-08-14T22:08:45.804Z,8.90
2022-08-14T22:10:59.244Z,9.97
2022-08-14T22:13:05.264Z,8.87
2022-08-14T22:15:14.778Z,8.83
2022-08-14T22:17:19.342Z,9.77
2022-08-14T22:19:47.526Z,10.33
2022-08-14T22:21:54.192Z,9.37
2022-08-14T22:24:00.334Z,9.53
2022-08-14T22:26:05.048Z,9.73
2022-08-14T22:28:13.065Z,9.23
2022-08-14T22:30:18.682Z,9.83
2022-08-14T22:32:26.059Z,9.10
2022-08-14T22:34:48.879Z,10.23
2022-08-14T22:36:53.006Z,9.07
2022-08-14T22:39:00.551Z,11.03
2022-08-14T22:41:25.328Z,10.60
2022-08-14T22:43:35.122Z,10.37
2022-08-14T22:45:42.575Z,10.70
2022-08-14T22:48:02.418Z,10.40
2022-08-14T22:50:30.974Z,9.80
2022-08-14T22:52:38.989Z,10.10
2022-08-14T22:54:52.985Z,10.57
2022-08-14T22:56:59.628Z,11.13
2022-08-14T22:59:09.685Z,11.50
2022-08-14T23:01:22.863Z,10.23
2022-08-14T23:03:28.911Z,10.70
2022-08-14T23:05:40.032Z,10.80
2022-08-14T23:08:59.208Z,12.40
2022-08-14T23:10:31.774Z,10.40
2022-08-14T23:12:54.534Z,10.33
2022-08-14T23:15:02.623Z,8.60
2022-08-14T23:17:12.124Z,9.23
2022-08-14T23:19:17.292Z,10.40
2022-08-14T23:21:25.150Z,11.47
2022-08-14T23:23:34.631Z,10.27
2022-08-14T23:26:00.253Z,11.17
2022-08-14T23:28:34.964Z,9.90
2022-08-14T23:30:43.140Z,9.83
2022-08-14T23:32:58.630Z,10.67
2022-08-14T23:35:06.180Z,11.17
2022-08-14T23:37:12.234Z,10.40
2022-08-14T23:39:19.323Z,11.17
2022-08-14T23:41:23.284Z,11.87
2022-08-14T23:43:30.942Z,11.50
2022-08-14T23:45:37.425Z,11.67
2022-08-14T23:47:52.084Z,11.27
2022-08-14T23:50:00.694Z,10.27
2022-08-14T23:52:50.972Z,11.13
2022-08-14T23:54:48.541Z,10.50
2022-08-14T23:56:59.966Z,10.47
2022-08-14T23:59:08.295Z,11.40
